Onde está Arraiolos en Portugal?

Arraiolos está situado na região Evora em Portugal!

Buscar o nome de uma cidade:

Arratia, Arrayanes, Arrarp, Arrayán, Arra Hill

Aqui você vai encontrar a localização de Arraiolos em um mapa.
Para ver como ele atualmente parece, abaixo estão algumas fotos da região, com webcams online.
Você também pode encontrar a distância para as principais cidades da região e de cidades do resto do Portugal.

Todos os lugares do mundo chamado .

new

Onde está Arraiolos no mapa?


Webcams perto Arraiolos

Vasco Carão > South: Garrocheira, Benavente - Airport.


Vasco Carão > South: Garrocheira, Benavente - Airport - Dia
Actual
Vasco Carão > South: Garrocheira, Benavente - Airport - Actual

Benavente > North-East: AIrport, METAR: BENAV 180005Z 36004KT 17/14 Q1015.


Benavente > North-East: AIrport, METAR: BENAV 180005Z 36004KT 17/14 Q1015 - Dia
Actual
Benavente > North-East: AIrport, METAR: BENAV 180005Z 36004KT 17/14 Q1015 - Actual

Comporta: Distrito de - Praia do Carvalhal°.


Comporta: Distrito de - Praia do Carvalhal° - Dia
Actual
Comporta: Distrito de - Praia do Carvalhal° - Actual

Webcams provided by webcams.travel

Distâncias

Onde está Arraiolos em relação a outros lugares?

Top 10 cidades em Evora e distância de Arraiolos.

Cidade#Populaçãokmmilhas
Évora1458511912
Montemor-o-Novo2128542113
Vendas Novas3112484226
Estremoz493493723
Reguengos de Monsaraz572175132
Redondo658453924
Vila Viçosa754845031
Borba845864729
Adaval9-3421
Agua d' Alte10-3723

Top 10 cidades em Portugal e distância de Arraiolos.

Cidade # Populaçãokmmilhas
Lisbon151779810062
Porto2249630275171
Amadora317885610968
Braga4121393317197
Setúbal51171098251
Coimbra6106580169105
Queluz710339810968
Funchal8980411051653
Vila Nova de Gaia970810274170
Loures106623010364